首页
METAR-TAF:

METAR-TAF

机场 :

烏爾根奇國際機場

烏爾根奇, 乌兹别克斯坦

纬度: 41-35N, 经度: 060-38-42E, 海拔: 98米

当前天气观测

该预报发布于56分钟前的21:00 UTC
风速8节,风向
温度 1°C
湿度 64%
气压 1028 hPa
能见度10公里或以上
1500米以下无云,无积雨云

METAR: UTNU 272100Z 08008KT CAVOK 01/M05 Q1028 R31/CLRD70 NOSIG

时间: 02:56 (21:56 UTC)

预报

该预报发布于4小时和56分钟前的17:00 UTC
预报有效从27日的 18点(UTC)到 28日的 18点(UTC)
风速10节,风向东转东北,有时为20节阵风
能見度: 6000
短暂存在
从 27日的 18点(UTC)到 27日的 24点(UTC)
风速5节,风向
能見度: 3000
散云层高于2000英尺
多云层高于10000英尺
轻雾

TAF: UTNU 271700Z 2718/2818 06010G20KT 6000 NSC TEMPO 2718/2724 08005KT 3000 BR SCT020 BKN100

超过4000个机场的气象观测和天气预报(METAR&TAF报告)。

可查询的气象台以黄色和红色小点在地图上表示。

将鼠标移到小点上方,可查看气象台名称。

然后点击查看天气观测和预报。

如需切换地图:点击带黑十字的绿色按钮放大地图;点击带横线的绿色按钮缩小地图;或者点击绿色箭头查看邻近地区的地图。


METAR-TAF: